createdAt,value
2018-06-11T00:00:00.144Z,99.99
2018-06-11T00:01:00.130Z,99.99
2018-06-11T00:02:00.113Z,99.99
2018-06-11T00:03:00.102Z,99.99
2018-06-11T00:04:00.088Z,99.99
2018-06-11T00:05:00.075Z,99.99
2018-06-11T00:06:00.060Z,99.99
2018-06-11T00:07:00.047Z,99.99
2018-06-11T00:08:00.039Z,99.99
2018-06-11T00:09:00.018Z,99.99
2018-06-11T00:10:00.024Z,99.99
2018-06-11T00:10:59.987Z,99.99
2018-06-11T00:11:59.974Z,99.99
2018-06-11T00:12:59.960Z,99.99
2018-06-11T00:13:59.995Z,99.99
2018-06-11T00:14:59.937Z,99.99
2018-06-11T00:15:59.919Z,99.99
2018-06-11T00:16:59.904Z,99.99
2018-06-11T00:17:59.894Z,99.99
2018-06-11T00:18:59.877Z,99.99
2018-06-11T00:19:59.863Z,99.99
2018-06-11T00:20:59.849Z,99.99
2018-06-11T00:21:59.833Z,99.99
2018-06-11T00:22:59.845Z,99.99
2018-06-11T00:23:59.805Z,99.99
2018-06-11T00:24:59.795Z,99.99
2018-06-11T00:25:59.779Z,99.99
2018-06-11T00:26:59.763Z,99.99
2018-06-11T00:27:59.752Z,99.99
2018-06-11T00:28:59.736Z,99.99
2018-06-11T00:29:59.722Z,99.99
2018-06-11T00:30:59.705Z,99.99
2018-06-11T00:31:59.694Z,99.99
2018-06-11T00:32:59.679Z,99.99
2018-06-11T00:33:59.663Z,99.99
2018-06-11T00:34:59.651Z,99.99
2018-06-11T00:35:59.635Z,99.99
2018-06-11T00:36:59.621Z,99.99
2018-06-11T00:37:59.615Z,99.99
2018-06-11T00:38:59.592Z,99.99
2018-06-11T00:39:59.580Z,99.99
2018-06-11T00:40:59.563Z,99.99
2018-06-11T00:41:59.550Z,99.99
2018-06-11T00:42:59.536Z,99.99
2018-06-11T00:43:59.522Z,99.99
2018-06-11T00:44:59.508Z,99.99
2018-06-11T00:45:59.497Z,99.99
2018-06-11T00:46:59.477Z,99.99
2018-06-11T00:47:59.464Z,99.99
2018-06-11T00:48:59.451Z,99.99
2018-06-11T00:49:59.435Z,99.99
2018-06-11T00:50:59.421Z,99.99
2018-06-11T00:51:59.407Z,99.99
2018-06-11T00:52:59.392Z,99.99
2018-06-11T00:53:59.378Z,99.99
2018-06-11T00:54:59.366Z,99.99
2018-06-11T00:55:59.348Z,99.99
2018-06-11T00:56:59.340Z,99.99
2018-06-11T00:57:59.321Z,99.99
2018-06-11T00:58:59.305Z,99.99
2018-06-11T00:59:59.292Z,99.99
2018-06-11T01:00:59.282Z,99.99
2018-06-11T01:01:59.263Z,99.99
2018-06-11T01:02:59.254Z,99.99
2018-06-11T01:03:59.235Z,99.99
2018-06-11T01:04:59.220Z,99.99
2018-06-11T01:05:59.207Z,99.99
2018-06-11T01:06:59.247Z,99.99
2018-06-11T01:07:59.177Z,99.99
2018-06-11T01:08:59.183Z,99.99
2018-06-11T01:09:59.200Z,99.99
2018-06-11T01:10:59.136Z,99.99
2018-06-11T01:11:59.121Z,99.99
2018-06-11T01:12:59.107Z,99.99
2018-06-11T01:13:59.096Z,99.99
2018-06-11T01:14:59.079Z,99.99
2018-06-11T01:15:59.062Z,99.99
2018-06-11T01:16:59.048Z,99.99
2018-06-11T01:17:59.031Z,99.99
2018-06-11T01:18:59.023Z,99.99
2018-06-11T01:19:59.003Z,99.99
2018-06-11T01:20:58.992Z,99.99
2018-06-11T01:21:58.975Z,99.99
2018-06-11T01:22:58.961Z,99.99
2018-06-11T01:23:58.948Z,99.99
2018-06-11T01:24:58.932Z,99.99
2018-06-11T01:25:58.920Z,99.99
2018-06-11T01:26:58.903Z,99.99
2018-06-11T01:27:58.894Z,99.99
2018-06-11T01:28:58.876Z,99.99
2018-06-11T01:29:58.860Z,99.99
2018-06-11T01:30:58.846Z,99.99
2018-06-11T01:31:58.830Z,99.99
2018-06-11T01:32:58.819Z,99.99
2018-06-11T01:33:58.801Z,99.99
2018-06-11T01:34:58.786Z,99.99
2018-06-11T01:35:58.776Z,99.99
2018-06-11T01:36:58.758Z,99.99
2018-06-11T01:37:58.745Z,99.99
2018-06-11T01:38:58.731Z,99.99
2018-06-11T01:39:58.717Z,99.99
2018-06-11T01:40:58.711Z,99.99
2018-06-11T01:41:58.684Z,99.99
2018-06-11T01:42:58.672Z,99.99
2018-06-11T01:43:58.656Z,99.99
2018-06-11T01:44:58.641Z,99.99
2018-06-11T01:45:58.627Z,99.99
2018-06-11T01:46:58.613Z,99.99
2018-06-11T01:47:58.599Z,99.99
2018-06-11T01:48:58.592Z,99.99
2018-06-11T01:49:58.575Z,99.99
2018-06-11T01:50:58.559Z,99.99
2018-06-11T01:51:58.541Z,99.99
2018-06-11T01:52:58.527Z,99.99
2018-06-11T01:53:58.510Z,99.99
2018-06-11T01:54:58.496Z,99.99
2018-06-11T01:55:58.484Z,99.99
2018-06-11T01:56:58.470Z,99.99
2018-06-11T01:57:58.451Z,99.99
2018-06-11T01:58:58.437Z,99.99
2018-06-11T01:59:58.423Z,99.99
2018-06-11T02:00:58.413Z,99.99
2018-06-11T02:01:58.396Z,99.99
2018-06-11T02:02:58.381Z,99.99
2018-06-11T02:03:58.368Z,99.99
2018-06-11T02:04:58.355Z,99.99
2018-06-11T02:05:58.339Z,99.99
2018-06-11T02:06:58.320Z,99.99
2018-06-11T02:07:58.306Z,99.99
2018-06-11T02:08:58.295Z,99.99
2018-06-11T02:09:58.276Z,99.99
2018-06-11T02:10:58.264Z,99.99
2018-06-11T02:11:58.251Z,99.99
2018-06-11T02:12:58.239Z,99.99
2018-06-11T02:13:58.223Z,99.99
2018-06-11T02:14:58.207Z,99.99
2018-06-11T02:15:58.196Z,99.99
2018-06-11T02:16:58.181Z,99.99
2018-06-11T02:17:58.163Z,99.99
2018-06-11T02:18:58.144Z,99.99
2018-06-11T02:19:58.129Z,99.99
2018-06-11T02:20:58.117Z,99.99
2018-06-11T02:21:58.131Z,99.99
2018-06-11T02:22:58.085Z,99.99
2018-06-11T02:23:58.070Z,99.99
2018-06-11T02:24:58.056Z,99.99
2018-06-11T02:25:58.043Z,99.99
2018-06-11T02:26:58.035Z,99.99
2018-06-11T02:27:58.016Z,99.99
2018-06-11T02:28:57.997Z,99.99
2018-06-11T02:29:57.987Z,99.99
2018-06-11T02:30:57.976Z,99.99
2018-06-11T02:31:57.962Z,99.99
2018-06-11T02:32:57.945Z,99.99
2018-06-11T02:33:57.940Z,99.99
2018-06-11T02:34:57.912Z,99.99
2018-06-11T02:35:57.897Z,99.99
2018-06-11T02:36:57.890Z,99.99
2018-06-11T02:37:57.867Z,99.99
2018-06-11T02:38:57.850Z,99.99
2018-06-11T02:39:57.841Z,99.99
2018-06-11T02:40:57.829Z,99.99
2018-06-11T02:41:57.804Z,99.99
2018-06-11T02:42:57.789Z,99.99
2018-06-11T02:43:57.781Z,99.99
2018-06-11T02:44:57.762Z,99.99
2018-06-11T02:45:57.746Z,99.99
2018-06-11T02:46:57.731Z,99.99
2018-06-11T02:47:57.723Z,99.99
2018-06-11T02:48:57.701Z,99.99
2018-06-11T02:49:57.687Z,99.99
2018-06-11T02:50:57.673Z,99.99
2018-06-11T02:51:57.659Z,99.99
2018-06-11T02:52:57.645Z,99.99
2018-06-11T02:53:57.629Z,99.99
2018-06-11T02:54:57.613Z,99.99
2018-06-11T02:55:57.598Z,99.99
2018-06-11T02:56:57.584Z,99.99
2018-06-11T02:57:57.572Z,99.99
2018-06-11T02:58:57.553Z,99.99
2018-06-11T02:59:57.542Z,99.99
2018-06-11T03:00:57.527Z,99.99
2018-06-11T03:01:57.509Z,99.99
2018-06-11T03:02:57.494Z,99.99
2018-06-11T03:03:57.486Z,99.99
2018-06-11T03:04:57.464Z,99.99
2018-06-11T03:05:57.454Z,99.99
2018-06-11T03:06:57.435Z,99.99
2018-06-11T03:07:57.421Z,99.99
2018-06-11T03:08:57.409Z,99.99
2018-06-11T03:09:57.390Z,99.99
2018-06-11T03:10:57.376Z,99.99
2018-06-11T03:11:57.359Z,99.99
2018-06-11T03:12:57.347Z,99.99
2018-06-11T03:13:57.331Z,99.99
2018-06-11T03:14:57.315Z,99.99
2018-06-11T03:15:57.302Z,99.99
2018-06-11T03:16:57.286Z,99.99
2018-06-11T03:17:57.271Z,99.99
2018-06-11T03:18:57.258Z,99.99
2018-06-11T03:19:57.248Z,99.99
2018-06-11T03:20:57.227Z,99.99
2018-06-11T03:21:57.211Z,99.99
2018-06-11T03:22:57.198Z,99.99
2018-06-11T03:23:57.182Z,99.99
2018-06-11T03:24:57.170Z,99.99
2018-06-11T03:25:57.156Z,99.99
2018-06-11T03:26:57.138Z,99.99
2018-06-11T03:27:57.123Z,99.99
2018-06-11T03:28:57.110Z,99.99
2018-06-11T03:29:57.092Z,99.99
2018-06-11T03:30:57.077Z,99.99
2018-06-11T03:31:57.064Z,99.99
2018-06-11T03:32:57.053Z,99.99
2018-06-11T03:33:57.034Z,99.99
2018-06-11T03:34:57.021Z,99.99
2018-06-11T03:35:57.003Z,99.99
2018-06-11T03:36:56.988Z,99.99
2018-06-11T03:37:56.973Z,99.99
2018-06-11T03:38:56.957Z,99.99
2018-06-11T03:39:56.945Z,99.99
2018-06-11T03:40:56.930Z,99.99
2018-06-11T03:41:56.912Z,99.99
2018-06-11T03:42:56.898Z,99.99
2018-06-11T03:43:56.886Z,99.99
2018-06-11T03:44:56.869Z,99.99
2018-06-11T03:45:56.856Z,99.99
2018-06-11T03:46:56.839Z,99.99
2018-06-11T03:47:56.824Z,99.99
2018-06-11T03:48:56.809Z,99.99
2018-06-11T03:49:56.793Z,99.99
2018-06-11T03:50:56.779Z,99.99
2018-06-11T03:51:56.765Z,99.99
2018-06-11T03:52:56.752Z,99.99
2018-06-11T03:53:56.733Z,99.99
2018-06-11T03:54:56.723Z,99.99
2018-06-11T03:55:56.705Z,99.99
2018-06-11T03:56:56.694Z,99.99
2018-06-11T03:57:56.678Z,99.99
2018-06-11T03:58:56.661Z,99.99
2018-06-11T03:59:56.651Z,99.99
2018-06-11T04:00:56.634Z,99.99
2018-06-11T04:03:04.967Z,99.99
2018-06-11T04:04:04.879Z,99.99
2018-06-11T04:05:04.855Z,99.99
2018-06-11T04:06:04.840Z,99.99
2018-06-11T04:07:04.824Z,99.99
2018-06-11T04:08:04.809Z,99.99
2018-06-11T04:09:04.794Z,99.99
2018-06-11T04:10:04.779Z,99.99
2018-06-11T04:11:04.840Z,99.99
2018-06-11T04:12:04.751Z,99.99
2018-06-11T04:13:04.736Z,99.99
2018-06-11T04:14:04.721Z,99.99
2018-06-11T04:15:04.706Z,99.99
2018-06-11T04:16:04.691Z,99.99
2018-06-11T04:17:04.676Z,99.99
2018-06-11T04:18:04.664Z,99.99
2018-06-11T04:19:04.648Z,99.73
2018-06-11T04:20:04.633Z,99.15
2018-06-11T04:21:04.625Z,99.06
2018-06-11T04:22:04.604Z,98.86
2018-06-11T04:23:04.591Z,99.06
2018-06-11T04:24:04.583Z,98.72
2018-06-11T04:25:04.561Z,99.21
2018-06-11T04:26:04.546Z,99.11
2018-06-11T04:27:04.533Z,98.19
2018-06-11T04:28:04.517Z,98.34
2018-06-11T04:29:04.505Z,99.01
2018-06-11T04:30:04.490Z,99.11
2018-06-11T04:31:04.479Z,97.76
2018-06-11T04:32:04.459Z,97.96
2018-06-11T04:33:04.445Z,98.34
2018-06-11T04:34:04.435Z,97.47
2018-06-11T04:35:04.417Z,97.38
2018-06-11T04:36:04.403Z,97.67
2018-06-11T04:37:04.389Z,97.67
2018-06-11T04:38:04.372Z,97.76
2018-06-11T04:39:04.359Z,97.47
2018-06-11T04:40:04.347Z,97.67
2018-06-11T04:41:04.333Z,97.47
2018-06-11T04:42:04.315Z,97.76
2018-06-11T04:43:04.303Z,97.38
2018-06-11T04:44:04.288Z,97.57
2018-06-11T04:45:04.275Z,97.96
2018-06-11T04:46:04.258Z,97.67
2018-06-11T04:47:04.249Z,97.47
2018-06-11T04:48:04.231Z,97.38
2018-06-11T04:49:04.218Z,96.80
2018-06-11T04:50:04.202Z,97.09
2018-06-11T04:51:04.187Z,97.28
2018-06-11T04:52:04.173Z,96.80
2018-06-11T04:53:04.161Z,97.28
2018-06-11T04:54:04.152Z,97.47
2018-06-11T04:55:04.179Z,97.38
2018-06-11T04:56:04.116Z,96.70
2018-06-11T04:57:04.107Z,96.61
2018-06-11T04:58:04.089Z,95.94
2018-06-11T04:59:04.075Z,96.80
2018-06-11T05:00:04.060Z,97.38
2018-06-11T05:01:04.045Z,97.57
2018-06-11T05:02:04.063Z,97.47
2018-06-11T05:03:04.018Z,96.99
2018-06-11T05:04:04.007Z,98.14
2018-06-11T05:05:03.991Z,97.19
2018-06-11T05:06:03.975Z,96.66
2018-06-11T05:07:03.965Z,97.38
2018-06-11T05:08:03.996Z,96.70
2018-06-11T05:09:03.933Z,96.90
2018-06-11T05:10:03.922Z,96.94
2018-06-11T05:11:03.907Z,96.47
2018-06-11T05:12:03.904Z,96.66
2018-06-11T05:13:03.877Z,96.47
2018-06-11T05:14:03.874Z,95.94
2018-06-11T05:15:03.847Z,96.80
2018-06-11T05:16:03.837Z,96.22
2018-06-11T05:17:03.825Z,96.61
2018-06-11T05:18:03.813Z,95.45
2018-06-11T05:19:03.792Z,96.32
2018-06-11T05:20:03.825Z,96.13
2018-06-11T05:21:03.763Z,96.42
2018-06-11T05:22:03.752Z,97.62
2018-06-11T05:23:03.739Z,96.17
2018-06-11T05:24:03.724Z,96.85
2018-06-11T05:25:03.714Z,96.66
2018-06-11T05:26:03.700Z,96.47
2018-06-11T05:27:03.683Z,95.31
2018-06-11T05:28:03.666Z,96.08
2018-06-11T05:29:03.655Z,95.31
2018-06-11T05:30:03.642Z,95.02
2018-06-11T05:31:03.624Z,95.21
2018-06-11T05:32:03.612Z,95.31
2018-06-11T05:33:03.597Z,95.02
2018-06-11T05:34:03.584Z,94.97
2018-06-11T05:35:03.571Z,94.45
2018-06-11T05:36:03.557Z,93.91
2018-06-11T05:37:03.542Z,94.30
2018-06-11T05:38:03.552Z,93.72
2018-06-11T05:39:03.518Z,94.20
2018-06-11T05:40:03.506Z,93.05
2018-06-11T05:41:03.488Z,92.38
2018-06-11T05:42:03.475Z,92.57
2018-06-11T05:43:03.461Z,92.85
2018-06-11T05:44:03.447Z,92.95
2018-06-11T05:45:03.441Z,92.47
2018-06-11T05:46:03.425Z,91.80
2018-06-11T05:47:03.405Z,92.47
2018-06-11T05:48:03.396Z,92.47
2018-06-11T05:49:03.382Z,93.24
2018-06-11T05:50:03.366Z,92.66
2018-06-11T05:51:03.354Z,92.28
2018-06-11T05:52:03.344Z,92.38
2018-06-11T05:53:03.325Z,91.22
2018-06-11T05:54:03.312Z,91.51
2018-06-11T05:55:03.299Z,91.99
2018-06-11T05:56:03.291Z,92.95
2018-06-11T05:57:03.273Z,93.62
2018-06-11T05:58:03.262Z,93.72
2018-06-11T05:59:03.249Z,92.03
2018-06-11T06:00:03.230Z,91.65
2018-06-11T06:01:03.218Z,91.84
2018-06-11T06:02:03.206Z,91.94
2018-06-11T06:03:03.191Z,90.97
2018-06-11T06:04:03.178Z,91.27
2018-06-11T06:05:03.167Z,91.07
2018-06-11T06:06:03.152Z,90.59
2018-06-11T06:07:03.137Z,90.40
2018-06-11T06:08:03.124Z,89.77
2018-06-11T06:09:03.111Z,90.06
2018-06-11T06:10:03.097Z,90.92
2018-06-11T06:11:03.083Z,90.16
2018-06-11T06:12:03.073Z,89.58
2018-06-11T06:13:03.057Z,90.83
2018-06-11T06:14:03.045Z,90.06
2018-06-11T06:15:03.034Z,90.83
2018-06-11T06:16:03.018Z,90.34
2018-06-11T06:17:03.005Z,90.54
2018-06-11T06:18:03.000Z,89.19
2018-06-11T06:19:02.979Z,89.00
2018-06-11T06:20:02.964Z,88.13
2018-06-11T06:21:02.955Z,89.09
2018-06-11T06:22:02.943Z,88.61
2018-06-11T06:23:02.927Z,89.29
2018-06-11T06:24:02.913Z,89.77
2018-06-11T06:25:02.908Z,89.67
2018-06-11T06:26:02.891Z,89.29
2018-06-11T06:27:02.911Z,89.48
2018-06-11T06:28:02.865Z,89.19
2018-06-11T06:29:02.849Z,88.81
2018-06-11T06:30:02.843Z,88.81
2018-06-11T06:31:02.824Z,89.48
2018-06-11T06:32:02.816Z,89.96
2018-06-11T06:33:02.797Z,90.73
2018-06-11T06:34:02.817Z,89.77
2018-06-11T06:35:02.772Z,89.86
2018-06-11T06:36:02.756Z,90.92
2018-06-11T06:37:02.745Z,90.48
2018-06-11T06:38:02.734Z,89.09
2018-06-11T06:39:02.721Z,89.48
2018-06-11T06:40:02.708Z,89.00
2018-06-11T06:41:02.694Z,89.77
2018-06-11T06:42:02.684Z,89.77
2018-06-11T06:43:02.673Z,89.67
2018-06-11T06:44:02.663Z,89.43
2018-06-11T06:45:02.645Z,89.23
2018-06-11T06:46:02.631Z,89.91
2018-06-11T06:47:02.620Z,89.72
2018-06-11T06:48:02.603Z,89.33
2018-06-11T06:49:02.591Z,89.53
2018-06-11T06:50:02.580Z,89.62
2018-06-11T06:51:02.564Z,87.40
2018-06-11T06:52:02.551Z,89.04
2018-06-11T06:53:02.541Z,88.70
2018-06-11T06:54:02.529Z,87.54
2018-06-11T06:55:02.516Z,87.74
2018-06-11T06:56:02.502Z,87.74
2018-06-11T06:57:02.490Z,86.77
2018-06-11T06:58:02.476Z,86.77
2018-06-11T06:59:02.466Z,87.74
2018-06-11T07:00:02.454Z,87.16
2018-06-11T07:01:02.442Z,85.71
2018-06-11T07:02:02.431Z,86.96
2018-06-11T07:03:02.415Z,86.68
2018-06-11T07:04:02.405Z,86.96
2018-06-11T07:05:02.390Z,87.16
2018-06-11T07:06:02.383Z,86.00
2018-06-11T07:07:02.367Z,85.81
2018-06-11T07:08:02.399Z,85.33
2018-06-11T07:09:02.342Z,84.41
2018-06-11T07:10:02.333Z,84.01
2018-06-11T07:11:02.317Z,84.41
2018-06-11T07:12:02.305Z,84.01
2018-06-11T07:13:02.293Z,84.11
2018-06-11T07:14:02.283Z,85.17
2018-06-11T07:15:02.267Z,84.93
2018-06-11T07:16:02.269Z,83.77
2018-06-11T07:17:02.244Z,82.81
2018-06-11T07:18:02.234Z,84.16
2018-06-11T07:19:02.227Z,85.60
2018-06-11T07:20:02.208Z,84.16
2018-06-11T07:21:02.195Z,84.35
2018-06-11T07:22:02.187Z,83.23
2018-06-11T07:23:02.171Z,81.45
2018-06-11T07:24:02.167Z,82.42
2018-06-11T07:25:02.151Z,83.23
2018-06-11T07:26:02.139Z,83.14
2018-06-11T07:27:02.134Z,83.23
2018-06-11T07:28:02.113Z,84.35
2018-06-11T07:29:02.102Z,83.87
2018-06-11T07:30:02.090Z,83.67
2018-06-11T07:31:02.079Z,82.81
2018-06-11T07:32:02.066Z,82.42
2018-06-11T07:33:02.056Z,83.09
2018-06-11T07:34:02.097Z,82.81
2018-06-11T07:35:02.062Z,83.09
2018-06-11T07:36:02.021Z,83.48
2018-06-11T07:37:02.007Z,83.19
2018-06-11T07:38:01.996Z,84.35
2018-06-11T07:39:01.987Z,83.77
2018-06-11T07:40:01.979Z,82.84
2018-06-11T07:41:01.999Z,82.46
2018-06-11T07:42:01.949Z,82.69
2018-06-11T07:43:01.938Z,81.63
2018-06-11T07:44:01.927Z,79.02
2018-06-11T07:45:01.918Z,79.60
2018-06-11T07:46:01.903Z,79.12
2018-06-11T07:47:01.891Z,79.41
2018-06-11T07:48:01.904Z,80.28
2018-06-11T07:49:01.871Z,81.05
2018-06-11T07:50:01.868Z,79.22
2018-06-11T07:51:01.850Z,79.06
2018-06-11T07:52:01.838Z,77.32
2018-06-11T07:53:01.827Z,76.93
2018-06-11T07:54:01.815Z,76.45
2018-06-11T07:55:01.812Z,76.78
2018-06-11T07:56:01.796Z,76.59
2018-06-11T07:57:01.788Z,76.74
2018-06-11T07:58:01.776Z,75.78
2018-06-11T07:59:01.763Z,76.16
2018-06-11T08:00:01.834Z,75.68
2018-06-11T08:01:01.739Z,76.64
2018-06-11T08:02:01.733Z,76.64
2018-06-11T08:03:01.717Z,76.16
2018-06-11T08:04:01.710Z,76.74
2018-06-11T08:05:01.695Z,75.75
2018-06-11T08:06:01.685Z,73.50
2018-06-11T08:07:01.676Z,71.66
2018-06-11T08:08:01.664Z,69.99
2018-06-11T08:09:01.656Z,69.24
2018-06-11T08:10:01.641Z,69.86
2018-06-11T08:11:01.633Z,68.79
2018-06-11T08:12:01.619Z,65.37
2018-06-11T08:13:01.610Z,62.13
2018-06-11T08:14:01.601Z,62.49
2018-06-11T08:15:01.591Z,64.40
2018-06-11T08:16:01.579Z,65.37
2018-06-11T08:17:01.571Z,66.69
2018-06-11T08:18:01.559Z,69.31
2018-06-11T08:19:01.557Z,69.12
2018-06-11T08:20:01.540Z,67.37
2018-06-11T08:21:01.532Z,65.63
2018-06-11T08:22:01.522Z,67.14
2018-06-11T08:23:01.512Z,66.27
2018-06-11T08:24:01.500Z,65.82
2018-06-11T08:25:01.495Z,66.17
2018-06-11T08:26:01.488Z,67.85
2018-06-11T08:27:01.474Z,67.57
2018-06-11T08:28:01.465Z,66.44
2018-06-11T08:29:01.464Z,65.37
2018-06-11T08:30:01.447Z,65.69
2018-06-11T08:31:01.437Z,65.53
2018-06-11T08:32:01.430Z,65.05
2018-06-11T08:33:01.424Z,64.56
2018-06-11T08:34:01.414Z,62.81
2018-06-11T08:35:01.406Z,63.29
2018-06-11T08:36:01.407Z,63.78
2018-06-11T08:37:01.396Z,63.23
2018-06-11T08:38:01.380Z,60.25
2018-06-11T08:39:01.378Z,61.83
2018-06-11T08:40:01.366Z,59.59
2018-06-11T08:41:01.361Z,58.85
2018-06-11T08:42:01.353Z,58.69
2018-06-11T08:43:01.347Z,58.78
2018-06-11T08:44:01.339Z,58.22
2018-06-11T08:45:01.333Z,55.74
2018-06-11T08:46:01.326Z,56.81
2018-06-11T08:47:01.320Z,56.59
2018-06-11T08:48:01.313Z,59.76
2018-06-11T08:49:01.307Z,58.95
2018-06-11T08:50:01.346Z,60.77
2018-06-11T08:51:01.297Z,58.95
2018-06-11T08:52:01.290Z,60.51
2018-06-11T08:53:01.286Z,61.32
2018-06-11T08:54:01.280Z,58.67
2018-06-11T08:55:01.280Z,58.86
2018-06-11T08:56:01.264Z,57.23
2018-06-11T08:57:01.261Z,55.19
2018-06-11T08:58:01.252Z,54.83
2018-06-11T08:59:01.246Z,56.10
2018-06-11T09:00:01.290Z,56.22
2018-06-11T09:01:01.243Z,55.03
2018-06-11T09:02:01.229Z,57.75
2018-06-11T09:03:01.224Z,57.85
2018-06-11T09:04:01.216Z,56.90
2018-06-11T09:05:01.213Z,57.17
2018-06-11T09:06:01.209Z,57.26
2018-06-11T09:07:01.250Z,57.72
2018-06-11T09:08:01.193Z,59.08
2018-06-11T09:09:01.187Z,57.62
2018-06-11T09:10:01.181Z,59.18
2018-06-11T09:11:01.175Z,59.38
2018-06-11T09:12:01.177Z,59.25
2018-06-11T09:13:01.164Z,58.47
2018-06-11T09:14:01.159Z,57.14
2018-06-11T09:15:01.162Z,56.46
2018-06-11T09:16:01.143Z,57.26
2018-06-11T09:17:01.139Z,57.10
2018-06-11T09:18:01.160Z,58.20
2018-06-11T09:19:01.126Z,58.00
2018-06-11T09:20:01.120Z,55.74
2018-06-11T09:21:01.113Z,55.44
2018-06-11T09:22:01.109Z,56.29
2018-06-11T09:23:01.101Z,53.67
2018-06-11T09:24:01.096Z,54.03
2018-06-11T09:25:01.157Z,54.05
2018-06-11T09:26:01.083Z,52.98
2018-06-11T09:27:01.079Z,52.11
2018-06-11T09:28:01.069Z,51.84
2018-06-11T09:29:01.062Z,53.42
2018-06-11T09:30:01.061Z,50.53
2018-06-11T09:31:01.107Z,49.85
2018-06-11T09:32:01.046Z,50.85
2018-06-11T09:33:01.038Z,49.93
2018-06-11T09:34:01.035Z,49.27
2018-06-11T09:35:01.024Z,49.93
2018-06-11T09:36:01.023Z,50.29
2018-06-11T09:37:01.019Z,50.36
2018-06-11T09:38:01.011Z,50.92
2018-06-11T09:39:01.004Z,52.36
2018-06-11T09:40:00.999Z,51.94
2018-06-11T09:41:00.995Z,53.45
2018-06-11T09:42:00.989Z,54.52
2018-06-11T09:43:00.979Z,55.10
2018-06-11T09:44:01.064Z,54.29
2018-06-11T09:45:00.970Z,55.17
2018-06-11T09:46:00.961Z,55.94
2018-06-11T09:47:00.957Z,55.85
2018-06-11T09:48:00.950Z,57.11
2018-06-11T09:49:00.944Z,57.21
2018-06-11T09:50:00.941Z,56.62
2018-06-11T09:51:00.936Z,56.24
2018-06-11T09:52:00.928Z,54.85
2018-06-11T09:53:00.922Z,55.73
2018-06-11T09:54:00.919Z,56.21
2018-06-11T09:55:00.910Z,56.89
2018-06-11T09:56:00.900Z,56.40
2018-06-11T09:57:00.896Z,54.94
2018-06-11T09:58:00.890Z,55.02
2018-06-11T09:59:00.887Z,58.44
2018-06-11T10:00:00.875Z,55.31
2018-06-11T10:01:00.868Z,56.50
2018-06-11T10:02:00.861Z,56.50
2018-06-11T10:03:00.855Z,58.05
2018-06-11T10:04:00.848Z,58.95
2018-06-11T10:05:00.841Z,57.50
2018-06-11T10:06:00.834Z,56.62
2018-06-11T10:07:00.827Z,57.01
2018-06-11T10:08:00.820Z,56.04
2018-06-11T10:09:00.817Z,56.30
2018-06-11T10:10:00.817Z,57.08
2018-06-11T10:11:00.797Z,55.53
2018-06-11T10:12:00.793Z,56.47
2018-06-11T10:13:00.785Z,55.89
2018-06-11T10:14:00.778Z,56.09
2018-06-11T10:15:00.769Z,56.09
2018-06-11T10:16:00.764Z,56.57
2018-06-11T10:17:00.759Z,58.03
2018-06-11T10:18:00.750Z,58.12
2018-06-11T10:19:00.751Z,57.06
2018-06-11T10:20:00.734Z,57.83
2018-06-11T10:21:00.724Z,58.90
2018-06-11T10:22:00.717Z,59.77
2018-06-11T10:23:00.709Z,57.28
2018-06-11T10:24:00.703Z,57.47
2018-06-11T10:25:00.695Z,55.99
2018-06-11T10:26:00.697Z,57.73
2018-06-11T10:27:00.679Z,57.08
2018-06-11T10:28:00.674Z,54.82
2018-06-11T10:29:00.667Z,55.02
2018-06-11T10:30:00.657Z,54.53
2018-06-11T10:31:00.653Z,55.02
2018-06-11T10:32:00.641Z,55.21
2018-06-11T10:33:00.652Z,56.76
2018-06-11T10:34:00.630Z,57.06
2018-06-11T10:35:00.621Z,56.30
2018-06-11T10:36:00.619Z,56.21
2018-06-11T10:37:00.605Z,56.60
2018-06-11T10:38:00.597Z,53.49
2018-06-11T10:39:00.589Z,52.62
2018-06-11T10:40:00.582Z,54.36
2018-06-11T10:41:00.570Z,54.24
2018-06-11T10:42:00.566Z,53.56
2018-06-11T10:43:00.554Z,54.72
2018-06-11T10:44:00.550Z,54.14
2018-06-11T10:45:00.539Z,53.85
2018-06-11T10:46:00.534Z,53.17
2018-06-11T10:47:00.523Z,54.05
2018-06-11T10:48:00.517Z,55.69
2018-06-11T10:49:00.507Z,55.21
2018-06-11T10:50:00.504Z,56.89
2018-06-11T10:51:00.490Z,55.24
2018-06-11T10:52:00.483Z,54.27
2018-06-11T10:53:00.477Z,54.75
2018-06-11T10:54:00.468Z,54.85
2018-06-11T10:55:00.468Z,53.20
2018-06-11T10:56:00.452Z,51.93
2018-06-11T10:57:00.444Z,50.77
2018-06-11T10:58:00.489Z,51.84
2018-06-11T10:59:00.431Z,51.35
2018-06-11T11:00:00.421Z,52.33
2018-06-11T11:01:00.412Z,52.03
2018-06-11T11:02:00.403Z,51.84
2018-06-11T11:03:00.398Z,50.68
2018-06-11T11:04:00.387Z,49.99
2018-06-11T11:05:00.388Z,52.33
2018-06-11T11:06:00.371Z,49.71
2018-06-11T11:07:00.365Z,49.99
2018-06-11T11:08:00.355Z,50.96
2018-06-11T11:09:00.347Z,50.48
2018-06-11T11:10:00.340Z,50.38
2018-06-11T11:11:00.331Z,49.99
2018-06-11T11:12:00.324Z,48.83
2018-06-11T11:13:00.316Z,49.12
2018-06-11T11:14:00.310Z,49.41
2018-06-11T11:15:00.300Z,49.71
2018-06-11T11:16:00.292Z,50.77
2018-06-11T11:17:00.283Z,52.62
2018-06-11T11:18:00.275Z,51.67
2018-06-11T11:19:00.270Z,50.41
2018-06-11T11:20:00.258Z,51.38
2018-06-11T11:21:00.251Z,49.73
2018-06-11T11:22:00.244Z,50.80
2018-06-11T11:23:00.237Z,49.44
2018-06-11T11:24:00.249Z,51.28
2018-06-11T11:25:00.231Z,47.88
2018-06-11T11:26:00.209Z,49.92
2018-06-11T11:27:00.201Z,50.51
2018-06-11T11:28:00.197Z,50.80
2018-06-11T11:29:00.188Z,50.02
2018-06-11T11:30:00.195Z,49.92
2018-06-11T11:31:00.170Z,49.07
2018-06-11T11:32:00.163Z,49.95
2018-06-11T11:33:00.161Z,49.37
2018-06-11T11:34:00.153Z,48.49
2018-06-11T11:35:00.142Z,49.37
2018-06-11T11:36:00.130Z,48.78
2018-06-11T11:37:00.122Z,49.07
2018-06-11T11:38:00.118Z,48.88
2018-06-11T11:39:00.106Z,50.21
2018-06-11T11:40:00.108Z,49.05
2018-06-11T11:41:00.092Z,49.44
2018-06-11T11:42:00.087Z,48.68
2018-06-11T11:43:00.080Z,47.52
2018-06-11T11:44:00.090Z,45.77
2018-06-11T11:45:00.072Z,47.03
2018-06-11T11:46:00.057Z,48.88
2018-06-11T11:47:00.045Z,49.07
2018-06-11T11:48:00.042Z,50.04
2018-06-11T11:49:00.036Z,49.66
2018-06-11T11:50:00.033Z,48.97
2018-06-11T11:51:00.039Z,47.03
2018-06-11T11:52:00.019Z,45.57
2018-06-11T11:52:59.999Z,46.94
2018-06-11T11:53:59.993Z,48.39
2018-06-11T11:54:59.987Z,48.03
2018-06-11T11:55:59.977Z,46.96
2018-06-11T11:56:59.975Z,49.10
2018-06-11T11:57:59.968Z,46.40
2018-06-11T11:58:59.962Z,46.98
2018-06-11T11:59:59.950Z,46.30
2018-06-11T12:00:59.945Z,45.23
2018-06-11T12:01:59.944Z,44.57
2018-06-11T12:02:59.931Z,44.57
2018-06-11T12:03:59.926Z,46.05
2018-06-11T12:04:59.921Z,44.52
2018-06-11T12:05:59.921Z,44.34
2018-06-11T12:06:59.912Z,44.46
2018-06-11T12:07:59.912Z,41.27
2018-06-11T12:08:59.924Z,41.28
2018-06-11T12:09:59.897Z,42.09
2018-06-11T12:10:59.894Z,39.67
2018-06-11T12:11:59.889Z,39.76
2018-06-11T12:12:59.886Z,38.32
2018-06-11T12:13:59.881Z,37.83
2018-06-11T12:14:59.878Z,37.45
2018-06-11T12:15:59.883Z,36.59
2018-06-11T12:16:59.873Z,37.57
2018-06-11T12:17:59.869Z,36.40
2018-06-11T12:18:59.924Z,34.14
2018-06-11T12:19:59.868Z,34.52
2018-06-11T12:20:59.864Z,35.01
2018-06-11T12:21:59.859Z,36.47
2018-06-11T12:22:59.867Z,36.30
2018-06-11T12:23:59.860Z,34.36
2018-06-11T12:24:59.854Z,34.16
2018-06-11T12:25:59.856Z,32.87
2018-06-11T12:26:59.848Z,35.04
2018-06-11T12:27:59.857Z,36.22
2018-06-11T12:28:59.849Z,35.04
2018-06-11T12:29:59.843Z,35.24
2018-06-11T12:30:59.845Z,33.58
2018-06-11T12:31:59.839Z,34.75
2018-06-11T12:32:59.838Z,32.61
2018-06-11T12:33:59.835Z,32.20
2018-06-11T12:34:59.834Z,32.89
2018-06-11T12:35:59.830Z,33.00
2018-06-11T12:36:59.833Z,33.69
2018-06-11T12:37:59.828Z,32.10
2018-06-11T12:38:59.827Z,31.81
2018-06-11T12:39:59.827Z,34.36
2018-06-11T12:40:59.818Z,33.56
2018-06-11T12:41:59.819Z,33.26
2018-06-11T12:49:27.234Z,34.72
2018-06-11T12:50:27.234Z,35.21
2018-06-11T12:51:27.227Z,35.50
2018-06-11T12:52:27.227Z,35.40
2018-06-11T12:53:27.221Z,35.30
2018-06-11T12:54:27.214Z,35.89
2018-06-11T12:55:27.215Z,36.77
2018-06-11T12:56:27.212Z,39.22
2018-06-11T12:57:27.206Z,35.38
2018-06-11T12:58:27.201Z,37.16
2018-06-11T12:59:27.197Z,35.99